F/V Cote D'ambre — FPEY — position and weather

sailwx.info

Track history (hours):
 
Tides and Currents Weather Stations Pressure Air Temp Water Temp Dewpoint Dewpoint Depression Visibility Wind Speed Wind Dir Waves Ship Positions

F/V Cote D'ambre

Last reported at 2014-Oct-01 05:33 UTC. Time now 2014-Oct-01 05:59 UTC.
Position N 47°38' W 003°22'.

Length 16 m; draft 4 m.

Type: Fishing. MMSI: 227128800.

Date/timePositionNaut miles runAvg speedWind from/ knotsBaromVisibWave heightAir tempDewpointWater temp
2014-Oct-01 05:33N 47°38' W 003°22'5 5.3
2014-Oct-01 04:33N 47°44' W 003°22'0 0.1
2014-Oct-01 03:32N 47°44' W 003°22'0 0.0
2014-Oct-01 02:32N 47°44' W 003°22'0 0.0
2014-Oct-01 01:32N 47°44' W 003°22'0 0.0
2014-Oct-01 00:32N 47°44' W 003°22'0 0.0
2014-Sep-30 23:32N 47°44' W 003°22'0 0.1
2014-Sep-30 22:31N 47°44' W 003°22'4 4.3
2014-Sep-30 21:33N 47°41' W 003°26'8 7.8
2014-Sep-30 20:29N 47°37' W 003°37'6 0.3
2014-Sep-30 03:31N 47°40' W 003°30'7 6.7
2014-Sep-30 02:33N 47°44' W 003°22'0 0.0
2014-Sep-30 01:33N 47°44' W 003°22'0 0.0
2014-Sep-30 00:33N 47°44' W 003°22'4 3.5
2014-Sep-29 23:34N 47°41' W 003°25'7 7.4
2014-Sep-29 22:33N 47°38' W 003°35'1 0.0
2014-Sep-29 05:17N 47°38' W 003°35'6 7.6
2014-Sep-29 04:34N 47°40' W 003°27'5 0.1
2014-Sep-27 04:32N 47°44' W 003°22'0 0.2
2014-Sep-27 03:31N 47°44' W 003°22'0 0.1
2014-Sep-27 02:33N 47°44' W 003°22'0 0.2
2014-Sep-27 01:32N 47°44' W 003°22'0 0.0
2014-Sep-27 00:33N 47°44' W 003°22'8 8.1
2014-Sep-26 23:34N 47°36' W 003°21'2 0.1
2014-Sep-26 01:33N 47°34' W 003°22'9 8.6
2014-Sep-26 00:34N 47°42' W 003°22'1 1.3
2014-Sep-25 23:33N 47°44' W 003°22'9 8.5
2014-Sep-25 22:33N 47°35' W 003°23'2 0.1
2014-Sep-25 01:33N 47°38' W 003°22'6 6.0
2014-Sep-25 00:31N 47°44' W 003°22'6 5.7
2014-Sep-24 23:33N 47°38' W 003°22'3 0.1
2014-Sep-23 01:33N 47°35' W 003°23'8 8.4
2014-Sep-23 00:34N 47°43' W 003°22'3 3.2
2014-Sep-22 23:33N 47°40' W 003°22'9 9.0
2014-Sep-22 22:33N 47°31' W 003°23'3 0.1
2014-Sep-22 01:33N 47°34' W 003°22'8 8.3
2014-Sep-22 00:33N 47°42' W 003°22'  
Track history (hours):
 
Tides and Currents Weather Stations Pressure Air Temp Water Temp Dewpoint Dewpoint Depression Visibility Wind Speed Wind Dir Waves Ship Positions

F/V Cote D'ambre

Last reported at 2014-Oct-01 05:33 UTC. Time now 2014-Oct-01 05:59 UTC.
Position N 47°38' W 003°22'.

Length 16 m; draft 4 m.

Type: Fishing. MMSI: 227128800.

Date/timePositionNaut miles runAvg speedWind from/ knotsBaromVisibWave heightAir tempDewpointWater temp
2014-Oct-01 05:33N 47°38' W 003°22'5 5.3
2014-Oct-01 04:33N 47°44' W 003°22'0 0.1
2014-Oct-01 03:32N 47°44' W 003°22'0 0.0
2014-Oct-01 02:32N 47°44' W 003°22'0 0.0
2014-Oct-01 01:32N 47°44' W 003°22'0 0.0
2014-Oct-01 00:32N 47°44' W 003°22'0 0.0
2014-Sep-30 23:32N 47°44' W 003°22'0 0.1
2014-Sep-30 22:31N 47°44' W 003°22'4 4.3
2014-Sep-30 21:33N 47°41' W 003°26'8 7.8
2014-Sep-30 20:29N 47°37' W 003°37'6 0.3
2014-Sep-30 03:31N 47°40' W 003°30'7 6.7
2014-Sep-30 02:33N 47°44' W 003°22'0 0.0
2014-Sep-30 01:33N 47°44' W 003°22'0 0.0
2014-Sep-30 00:33N 47°44' W 003°22'4 3.5
2014-Sep-29 23:34N 47°41' W 003°25'7 7.4
2014-Sep-29 22:33N 47°38' W 003°35'1 0.0
2014-Sep-29 05:17N 47°38' W 003°35'6 7.6
2014-Sep-29 04:34N 47°40' W 003°27'5 0.1
2014-Sep-27 04:32N 47°44' W 003°22'0 0.2
2014-Sep-27 03:31N 47°44' W 003°22'0 0.1
2014-Sep-27 02:33N 47°44' W 003°22'0 0.2
2014-Sep-27 01:32N 47°44' W 003°22'0 0.0
2014-Sep-27 00:33N 47°44' W 003°22'8 8.1
2014-Sep-26 23:34N 47°36' W 003°21'2 0.1
2014-Sep-26 01:33N 47°34' W 003°22'9 8.6
2014-Sep-26 00:34N 47°42' W 003°22'1 1.3
2014-Sep-25 23:33N 47°44' W 003°22'9 8.5
2014-Sep-25 22:33N 47°35' W 003°23'2 0.1
2014-Sep-25 01:33N 47°38' W 003°22'6 6.0
2014-Sep-25 00:31N 47°44' W 003°22'6 5.7
2014-Sep-24 23:33N 47°38' W 003°22'3 0.1
2014-Sep-23 01:33N 47°35' W 003°23'8 8.4
2014-Sep-23 00:34N 47°43' W 003°22'3 3.2
2014-Sep-22 23:33N 47°40' W 003°22'9 9.0
2014-Sep-22 22:33N 47°31' W 003°23'3 0.1
2014-Sep-22 01:33N 47°34' W 003°22'8 8.3
2014-Sep-22 00:33N 47°42' W 003°22'  

Dump ship's entire track history